createdAt,value
2022-10-21T00:00:37.741Z,35.40
2022-10-21T00:02:37.975Z,33.00
2022-10-21T00:03:37.724Z,33.70
2022-10-21T00:04:37.734Z,33.60
2022-10-21T00:05:37.723Z,31.90
2022-10-21T00:06:37.731Z,34.00
2022-10-21T00:07:37.706Z,33.20
2022-10-21T00:08:37.780Z,40.30
2022-10-21T00:09:37.690Z,33.70
2022-10-21T00:11:37.726Z,38.00
2022-10-21T00:12:38.089Z,32.40
2022-10-21T00:13:37.665Z,33.50
2022-10-21T00:14:37.752Z,32.40
2022-10-21T00:15:37.651Z,34.30
2022-10-21T00:16:37.664Z,36.50
2022-10-21T00:17:37.637Z,31.50
2022-10-21T00:18:37.641Z,29.70
2022-10-21T00:19:37.629Z,30.90
2022-10-21T00:20:39.714Z,31.80
2022-10-21T00:21:37.619Z,29.20
2022-10-21T00:22:37.958Z,28.90
2022-10-21T00:23:37.593Z,27.30
2022-10-21T00:24:37.592Z,28.20
2022-10-21T00:25:37.586Z,31.50
2022-10-21T00:26:38.551Z,29.70
2022-10-21T00:27:37.873Z,26.80
2022-10-21T00:28:37.553Z,26.20
2022-10-21T00:29:37.551Z,27.10
2022-10-21T00:30:37.572Z,26.20
2022-10-21T00:31:37.555Z,26.20
2022-10-21T00:32:37.764Z,30.90
2022-10-21T00:33:37.548Z,31.40
2022-10-21T00:34:37.526Z,25.90
2022-10-21T00:35:37.515Z,28.90
2022-10-21T00:36:37.503Z,25.80
2022-10-21T00:37:37.754Z,28.30
2022-10-21T00:38:37.527Z,26.50
2022-10-21T00:39:37.499Z,25.70
2022-10-21T00:40:37.486Z,29.10
2022-10-21T00:41:37.477Z,28.10
2022-10-21T00:42:39.600Z,27.40
2022-10-21T00:43:37.465Z,29.30
2022-10-21T00:44:37.462Z,27.70
2022-10-21T00:45:37.443Z,28.30
2022-10-21T00:46:37.449Z,33.60
2022-10-21T00:47:37.511Z,32.20
2022-10-21T00:48:37.429Z,30.20
2022-10-21T00:49:37.845Z,32.50
2022-10-21T00:50:40.194Z,29.40
2022-10-21T00:51:38.402Z,35.90
2022-10-21T00:52:37.773Z,30.40
2022-10-21T00:53:37.829Z,25.50
2022-10-21T00:54:37.414Z,22.10
2022-10-21T00:55:37.411Z,23.60
2022-10-21T00:56:37.378Z,26.60
2022-10-21T00:57:37.747Z,27.40
2022-10-21T00:58:37.363Z,25.20
2022-10-21T00:59:37.350Z,24.10
2022-10-21T01:00:37.402Z,26.40
2022-10-21T01:01:37.437Z,24.70
2022-10-21T01:02:37.331Z,25.50
2022-10-21T01:03:37.319Z,20.70
2022-10-21T01:04:37.322Z,25.80
2022-10-21T01:05:37.350Z,21.60
2022-10-21T01:06:37.745Z,26.00
2022-10-21T01:07:40.316Z,22.10
2022-10-21T01:08:37.406Z,27.70
2022-10-21T01:09:37.276Z,23.30
2022-10-21T01:10:37.301Z,19.70
2022-10-21T01:11:37.266Z,23.20
2022-10-21T01:12:37.263Z,27.50
2022-10-21T01:13:37.256Z,23.80
2022-10-21T01:14:37.242Z,22.70
2022-10-21T01:15:37.254Z,23.00
2022-10-21T01:16:37.270Z,25.00
2022-10-21T01:17:44.935Z,26.10
2022-10-21T01:18:38.232Z,33.70
2022-10-21T01:19:37.220Z,34.30
2022-10-21T01:20:37.207Z,39.00
2022-10-21T01:21:38.311Z,40.20
2022-10-21T01:22:37.199Z,40.90
2022-10-21T01:23:37.185Z,42.00
2022-10-21T01:24:37.187Z,40.40
2022-10-21T01:25:37.181Z,47.40
2022-10-21T01:26:37.206Z,37.70
2022-10-21T01:27:37.439Z,41.30
2022-10-21T01:28:37.152Z,38.90
2022-10-21T01:29:37.143Z,31.90
2022-10-21T01:30:37.149Z,45.40
2022-10-21T01:31:37.149Z,41.50
2022-10-21T01:32:37.147Z,42.10
2022-10-21T01:33:37.768Z,42.40
2022-10-21T01:34:37.110Z,43.10
2022-10-21T01:35:37.124Z,55.00
2022-10-21T01:36:37.096Z,47.80
2022-10-21T01:37:37.525Z,38.40
2022-10-21T01:38:37.110Z,41.90
2022-10-21T01:39:37.081Z,37.20
2022-10-21T01:40:37.088Z,34.10
2022-10-21T01:41:37.065Z,35.70
2022-10-21T01:42:37.323Z,34.00
2022-10-21T01:43:37.059Z,56.00
2022-10-21T01:44:37.054Z,35.90
2022-10-21T01:45:37.044Z,40.30
2022-10-21T01:46:37.023Z,42.30
2022-10-21T01:47:37.028Z,43.20
2022-10-21T01:48:37.021Z,35.30
2022-10-21T01:49:37.027Z,43.40
2022-10-21T01:50:37.678Z,51.90
2022-10-21T01:51:37.006Z,39.10
2022-10-21T01:52:37.303Z,35.40
2022-10-21T01:53:36.979Z,33.60
2022-10-21T01:54:36.982Z,32.10
2022-10-21T01:55:36.992Z,29.90
2022-10-21T01:56:36.969Z,38.30
2022-10-21T01:57:36.962Z,31.70
2022-10-21T01:58:36.966Z,35.00
2022-10-21T01:59:36.945Z,34.10
2022-10-21T02:00:36.939Z,33.80
2022-10-21T02:01:36.943Z,32.50
2022-10-21T02:02:37.454Z,35.60
2022-10-21T02:03:36.965Z,31.80
2022-10-21T02:04:36.910Z,30.70
2022-10-21T02:05:36.906Z,31.20
2022-10-21T02:06:37.416Z,34.20
2022-10-21T02:07:36.892Z,37.20
2022-10-21T02:08:36.936Z,33.40
2022-10-21T02:09:36.881Z,32.20
2022-10-21T02:10:36.932Z,40.90
2022-10-21T02:11:37.201Z,31.80
2022-10-21T02:12:37.222Z,37.00
2022-10-21T02:13:36.890Z,38.90
2022-10-21T02:14:36.875Z,37.40
2022-10-21T02:15:36.834Z,50.40
2022-10-21T02:16:37.329Z,52.10
2022-10-21T02:17:36.827Z,44.00
2022-10-21T02:18:36.811Z,51.00
2022-10-21T02:19:36.834Z,49.80
2022-10-21T02:20:36.811Z,64.40
2022-10-21T02:21:36.807Z,39.10
2022-10-21T02:22:37.214Z,40.10
2022-10-21T02:23:36.783Z,44.80
2022-10-21T02:24:36.780Z,46.80
2022-10-21T02:25:36.768Z,57.70
2022-10-21T02:26:36.780Z,48.80
2022-10-21T02:27:36.760Z,54.70
2022-10-21T02:28:36.820Z,55.70
2022-10-21T02:29:36.745Z,39.90
2022-10-21T02:30:36.754Z,56.70
2022-10-21T02:31:36.733Z,52.30
2022-10-21T02:32:37.182Z,64.40
2022-10-21T02:33:37.099Z,51.20
2022-10-21T02:34:36.713Z,64.50
2022-10-21T02:35:36.698Z,68.70
2022-10-21T02:36:36.696Z,70.80
2022-10-21T02:37:36.753Z,60.10
2022-10-21T02:38:36.685Z,70.80
2022-10-21T02:39:36.905Z,80.00
2022-10-21T02:40:36.662Z,100.90
2022-10-21T02:41:36.662Z,72.80
2022-10-21T02:42:37.139Z,79.10
2022-10-21T02:43:36.675Z,66.90
2022-10-21T02:44:36.646Z,78.10
2022-10-21T02:45:36.630Z,70.10
2022-10-21T02:46:36.659Z,75.50
2022-10-21T02:47:36.927Z,69.50
2022-10-21T02:48:36.613Z,71.60
2022-10-21T02:49:37.016Z,89.40
2022-10-21T02:50:36.609Z,64.60
2022-10-21T02:51:36.602Z,64.10
2022-10-21T02:52:36.591Z,59.60
2022-10-21T02:53:36.597Z,64.90
2022-10-21T02:54:36.579Z,72.50
2022-10-21T02:55:36.585Z,67.30
2022-10-21T02:56:36.565Z,93.70
2022-10-21T02:57:36.926Z,78.00
2022-10-21T02:58:36.547Z,64.60
2022-10-21T02:59:36.532Z,75.60
2022-10-21T03:00:36.530Z,94.50
2022-10-21T03:01:37.179Z,96.00
2022-10-21T03:02:36.539Z,86.60
2022-10-21T03:03:37.188Z,86.70
2022-10-21T03:04:36.513Z,77.90
2022-10-21T03:05:37.128Z,86.40
2022-10-21T03:06:36.491Z,71.20
2022-10-21T03:07:36.815Z,63.90
2022-10-21T03:08:36.492Z,57.00
2022-10-21T03:09:36.475Z,71.60
2022-10-21T03:10:36.463Z,85.70
2022-10-21T03:11:37.597Z,73.90
2022-10-21T03:12:36.445Z,80.50
2022-10-21T03:13:36.563Z,95.00
2022-10-21T03:14:36.429Z,72.80
2022-10-21T03:15:36.442Z,98.40
2022-10-21T03:16:36.433Z,103.80
2022-10-21T03:17:37.802Z,134.60
2022-10-21T03:18:36.446Z,134.60
2022-10-21T03:19:36.394Z,124.70
2022-10-21T03:20:36.394Z,162.50
2022-10-21T03:21:36.387Z,168.80
2022-10-21T03:22:36.377Z,142.30
2022-10-21T03:23:36.376Z,127.90
2022-10-21T03:24:36.372Z,132.60
2022-10-21T03:25:36.380Z,99.40
2022-10-21T03:26:36.375Z,129.60
2022-10-21T03:27:36.352Z,137.50
2022-10-21T03:28:36.362Z,116.60
2022-10-21T03:29:36.331Z,96.90
2022-10-21T03:30:36.357Z,113.10
2022-10-21T03:31:36.333Z,141.70
2022-10-21T03:32:36.508Z,107.30
2022-10-21T03:33:36.313Z,140.10
2022-10-21T03:34:36.724Z,98.40
2022-10-21T03:35:36.306Z,103.00
2022-10-21T03:36:36.289Z,92.10
2022-10-21T03:37:36.278Z,73.00
2022-10-21T03:38:36.276Z,72.70
2022-10-21T03:39:36.282Z,85.50
2022-10-21T03:40:36.253Z,71.40
2022-10-21T03:41:36.257Z,67.70
2022-10-21T03:42:36.700Z,61.00
2022-10-21T03:43:36.241Z,49.40
2022-10-21T03:44:36.237Z,48.70
2022-10-21T03:45:36.232Z,73.50
2022-10-21T03:46:36.221Z,32.00
2022-10-21T03:47:36.210Z,28.70
2022-10-21T03:48:36.317Z,29.70
2022-10-21T03:49:36.269Z,27.30
2022-10-21T03:50:36.210Z,26.30
2022-10-21T03:51:36.184Z,24.10
2022-10-21T03:52:36.528Z,25.50
2022-10-21T03:53:43.270Z,27.80
2022-10-21T03:54:37.179Z,30.80
2022-10-21T03:55:36.494Z,32.70
2022-10-21T03:56:36.145Z,47.10
2022-10-21T03:57:36.152Z,70.60
2022-10-21T03:58:36.147Z,89.30
2022-10-21T03:59:36.183Z,53.40
2022-10-21T04:00:36.160Z,38.00
2022-10-21T04:01:36.256Z,32.50
2022-10-21T04:02:36.426Z,28.20
2022-10-21T04:03:36.117Z,29.40
2022-10-21T04:04:36.093Z,23.00
2022-10-21T04:05:36.079Z,25.20
2022-10-21T04:06:36.105Z,23.90
2022-10-21T04:07:36.084Z,27.90
2022-10-21T04:08:36.127Z,26.70
2022-10-21T04:09:36.059Z,31.30
2022-10-21T04:10:36.084Z,23.70
2022-10-21T04:11:36.131Z,30.60
2022-10-21T04:12:36.272Z,31.00
2022-10-21T04:13:36.044Z,39.50
2022-10-21T04:14:36.027Z,39.00
2022-10-21T04:15:36.026Z,39.70
2022-10-21T04:16:36.022Z,33.90
2022-10-21T04:17:36.006Z,35.80
2022-10-21T04:18:36.651Z,31.90
2022-10-21T04:19:35.987Z,41.10
2022-10-21T04:20:35.980Z,52.30
2022-10-21T04:21:35.978Z,56.10
2022-10-21T04:22:36.316Z,51.20
2022-10-21T04:23:35.984Z,53.00
2022-10-21T04:24:35.964Z,43.50
2022-10-21T04:25:35.946Z,54.40
2022-10-21T04:26:35.949Z,55.50
2022-10-21T04:27:35.932Z,42.20
2022-10-21T04:28:35.939Z,37.20
2022-10-21T04:29:39.977Z,64.20
2022-10-21T04:30:35.916Z,60.40
2022-10-21T04:31:35.899Z,46.70
2022-10-21T04:32:36.167Z,53.00
2022-10-21T04:33:35.963Z,52.00
2022-10-21T04:34:35.888Z,56.90
2022-10-21T04:35:35.898Z,44.20
2022-10-21T04:36:35.873Z,56.50
2022-10-21T04:37:35.871Z,57.20
2022-10-21T04:38:35.875Z,58.40
2022-10-21T04:39:35.948Z,49.10
2022-10-21T04:40:35.862Z,62.40
2022-10-21T04:41:35.831Z,59.80
2022-10-21T04:42:35.835Z,49.20
2022-10-21T04:43:35.826Z,37.50
2022-10-21T04:44:35.831Z,30.80
2022-10-21T04:45:35.820Z,30.10
2022-10-21T04:46:35.806Z,29.10
2022-10-21T04:47:35.982Z,27.30
2022-10-21T04:48:35.792Z,26.00
2022-10-21T04:49:35.795Z,26.20
2022-10-21T04:50:36.486Z,27.30
2022-10-21T04:51:35.785Z,27.00
2022-10-21T04:52:36.107Z,23.30
2022-10-21T04:53:35.757Z,20.70
2022-10-21T04:54:35.781Z,23.30
2022-10-21T04:55:35.739Z,23.60
2022-10-21T04:56:35.753Z,21.90
2022-10-21T04:57:35.736Z,20.90
2022-10-21T04:58:35.742Z,23.80
2022-10-21T04:59:35.719Z,23.60
2022-10-21T05:00:35.789Z,21.10
2022-10-21T05:01:35.704Z,18.80
2022-10-21T05:02:35.757Z,26.80
2022-10-21T05:03:35.697Z,23.00
2022-10-21T05:04:35.675Z,21.40
2022-10-21T05:05:35.680Z,22.00
2022-10-21T05:06:35.664Z,19.90
2022-10-21T05:07:35.655Z,18.50
2022-10-21T05:08:36.457Z,20.30
2022-10-21T05:09:35.644Z,18.60
2022-10-21T05:10:35.664Z,20.60
2022-10-21T05:11:35.644Z,19.10
2022-10-21T05:13:35.624Z,22.80
2022-10-21T05:14:35.612Z,23.20
2022-10-21T05:15:35.615Z,25.60
2022-10-21T05:16:35.606Z,21.00
2022-10-21T05:17:35.825Z,24.00
2022-10-21T05:18:35.597Z,27.10
2022-10-21T05:19:35.578Z,24.30
2022-10-21T05:20:35.591Z,22.40
2022-10-21T05:22:35.643Z,23.90
2022-10-21T05:23:35.557Z,24.30
2022-10-21T05:24:35.554Z,25.20
2022-10-21T05:25:35.555Z,22.00
2022-10-21T05:26:35.569Z,23.50
2022-10-21T05:27:35.535Z,20.90
2022-10-21T05:28:35.540Z,18.30
2022-10-21T05:29:35.518Z,23.00
2022-10-21T05:30:35.600Z,22.80
2022-10-21T05:31:35.521Z,21.10
2022-10-21T05:32:35.651Z,25.60
2022-10-21T05:33:35.494Z,20.50
2022-10-21T05:34:35.479Z,22.30
2022-10-21T05:35:35.471Z,21.10
2022-10-21T05:36:35.464Z,25.40
2022-10-21T05:37:35.464Z,20.10
2022-10-21T05:38:35.459Z,22.80
2022-10-21T05:39:35.470Z,23.50
2022-10-21T05:40:36.174Z,18.10
2022-10-21T05:41:35.424Z,19.90
2022-10-21T05:42:35.594Z,18.30
2022-10-21T05:43:35.414Z,20.80
2022-10-21T05:44:35.399Z,19.20
2022-10-21T05:45:35.654Z,19.30
2022-10-21T05:46:35.383Z,21.20
2022-10-21T05:47:35.376Z,21.70
2022-10-21T05:48:35.412Z,19.20
2022-10-21T05:49:35.364Z,21.50
2022-10-21T05:50:35.623Z,18.30
2022-10-21T05:51:35.363Z,23.80
2022-10-21T05:52:35.468Z,23.40
2022-10-21T05:53:35.346Z,20.60
2022-10-21T05:54:35.329Z,22.00
2022-10-21T05:55:35.882Z,20.40
2022-10-21T05:56:35.326Z,29.10
2022-10-21T05:57:35.309Z,25.00
2022-10-21T05:58:35.342Z,24.10
2022-10-21T05:59:35.308Z,24.20
2022-10-21T06:00:35.486Z,20.80
2022-10-21T06:01:35.728Z,19.70
2022-10-21T06:02:35.468Z,19.40
2022-10-21T06:03:35.314Z,22.60
2022-10-21T06:04:37.995Z,22.20
2022-10-21T06:05:35.264Z,26.70
2022-10-21T06:06:35.253Z,22.70
2022-10-21T06:07:35.243Z,20.10
2022-10-21T06:08:35.294Z,20.10
2022-10-21T06:09:35.231Z,19.70
2022-10-21T06:10:35.238Z,20.00
2022-10-21T06:11:35.222Z,23.20
2022-10-21T06:12:35.204Z,24.30
2022-10-21T06:13:35.210Z,21.80
2022-10-21T06:14:35.219Z,19.90
2022-10-21T06:15:35.193Z,22.00
2022-10-21T06:16:35.202Z,22.40
2022-10-21T06:17:35.171Z,19.10
2022-10-21T06:18:35.224Z,20.70
2022-10-21T06:19:35.163Z,17.20
2022-10-21T06:20:35.152Z,24.00
2022-10-21T06:21:35.152Z,20.10
2022-10-21T06:22:35.177Z,21.30
2022-10-21T06:23:35.139Z,18.90
2022-10-21T06:24:35.124Z,18.50
2022-10-21T06:25:35.133Z,18.80
2022-10-21T06:26:36.916Z,16.70
2022-10-21T06:27:35.140Z,20.30
2022-10-21T06:28:35.112Z,21.00
2022-10-21T06:29:35.115Z,18.00
2022-10-21T06:30:35.111Z,16.70
2022-10-21T06:31:35.088Z,15.50
2022-10-21T06:32:35.068Z,22.10
2022-10-21T06:33:35.082Z,17.60
2022-10-21T06:34:35.064Z,16.90
2022-10-21T06:35:35.071Z,18.50
2022-10-21T06:36:35.044Z,17.50
2022-10-21T06:37:35.150Z,25.60
2022-10-21T06:38:35.037Z,14.70
2022-10-21T06:39:35.080Z,16.90
2022-10-21T06:40:35.020Z,18.00
2022-10-21T06:41:35.011Z,15.90
2022-10-21T06:42:35.001Z,20.50
2022-10-21T06:43:35.001Z,18.50
2022-10-21T06:44:34.982Z,16.40
2022-10-21T06:45:34.996Z,15.70
2022-10-21T06:46:34.994Z,15.70
2022-10-21T06:47:34.983Z,14.90
2022-10-21T06:48:34.964Z,14.70
2022-10-21T06:49:34.968Z,19.80
2022-10-21T06:50:34.974Z,16.00
2022-10-21T06:51:34.939Z,16.10
2022-10-21T06:52:34.925Z,20.20
2022-10-21T06:53:38.101Z,16.30
2022-10-21T06:54:34.918Z,15.50
2022-10-21T06:55:34.914Z,16.60
2022-10-21T06:56:35.584Z,14.90
2022-10-21T06:57:34.935Z,17.50
2022-10-21T06:58:34.882Z,15.80
2022-10-21T06:59:34.874Z,16.70
2022-10-21T07:00:34.881Z,18.10
2022-10-21T07:01:48.419Z,16.70
2022-10-21T07:02:36.246Z,27.20
2022-10-21T07:03:34.854Z,20.40
2022-10-21T07:04:34.840Z,17.50
2022-10-21T07:05:34.836Z,16.90
2022-10-21T07:06:35.834Z,16.20
2022-10-21T07:07:34.820Z,15.10
2022-10-21T07:08:46.781Z,19.30
2022-10-21T07:09:35.926Z,18.20
2022-10-21T07:10:34.813Z,19.00
2022-10-21T07:11:34.830Z,16.40
2022-10-21T07:12:34.795Z,17.90
2022-10-21T07:13:34.775Z,17.90
2022-10-21T07:14:34.778Z,21.00
2022-10-21T07:15:34.772Z,21.80
2022-10-21T07:16:34.792Z,20.80
2022-10-21T07:17:34.770Z,25.40
2022-10-21T07:18:36.984Z,22.60
2022-10-21T07:19:34.737Z,20.00
2022-10-21T07:20:34.790Z,20.70
2022-10-21T07:21:34.732Z,20.10
2022-10-21T07:22:34.738Z,17.10
2022-10-21T07:23:34.925Z,17.40
2022-10-21T07:24:34.701Z,21.80
2022-10-21T07:25:34.694Z,17.00
2022-10-21T07:26:34.702Z,20.60
2022-10-21T07:27:34.701Z,19.80
2022-10-21T07:28:34.671Z,21.20
2022-10-21T07:29:34.671Z,17.10
2022-10-21T07:30:34.663Z,19.80
2022-10-21T07:31:34.646Z,19.80
2022-10-21T07:32:35.422Z,22.30
2022-10-21T07:33:34.634Z,21.00
2022-10-21T07:34:34.768Z,17.60
2022-10-21T07:35:34.617Z,18.80
2022-10-21T07:36:34.634Z,20.60
2022-10-21T07:37:34.656Z,18.90
2022-10-21T07:38:34.596Z,20.60
2022-10-21T07:39:34.599Z,20.30
2022-10-21T07:40:34.588Z,17.70
2022-10-21T07:41:34.576Z,21.70
2022-10-21T07:42:34.581Z,23.80
2022-10-21T07:43:34.569Z,28.90
2022-10-21T07:44:34.569Z,18.50
2022-10-21T07:45:34.558Z,20.30
2022-10-21T07:46:34.546Z,21.50
2022-10-21T07:47:34.550Z,17.60
2022-10-21T07:48:34.551Z,21.30
2022-10-21T07:49:34.546Z,22.40
2022-10-21T07:50:34.538Z,19.00
2022-10-21T07:51:34.515Z,20.10
2022-10-21T07:52:37.136Z,21.40
2022-10-21T07:53:35.504Z,21.70
2022-10-21T07:54:34.491Z,17.90
2022-10-21T07:55:34.474Z,21.80
2022-10-21T07:56:34.485Z,19.70
2022-10-21T07:57:34.466Z,21.50
2022-10-21T07:58:34.455Z,18.90
2022-10-21T07:59:34.963Z,20.60
2022-10-21T08:00:34.471Z,21.80
2022-10-21T08:01:34.605Z,19.10
2022-10-21T08:02:34.447Z,19.50
2022-10-21T08:03:34.422Z,19.70
2022-10-21T08:04:34.420Z,20.70
2022-10-21T08:05:34.406Z,18.90
2022-10-21T08:06:34.422Z,18.40
2022-10-21T08:07:34.402Z,23.10
2022-10-21T08:08:34.458Z,16.80
2022-10-21T08:09:34.417Z,17.40
2022-10-21T08:10:34.392Z,16.00
2022-10-21T08:11:34.362Z,19.20
2022-10-21T08:12:34.355Z,19.20
2022-10-21T08:13:34.368Z,22.30
2022-10-21T08:14:34.407Z,21.10
2022-10-21T08:15:34.342Z,16.30
2022-10-21T08:16:34.447Z,17.30
2022-10-21T08:17:34.329Z,20.90
2022-10-21T08:18:34.332Z,16.70
2022-10-21T08:19:34.311Z,17.40
2022-10-21T08:20:34.299Z,20.30
2022-10-21T08:21:34.295Z,18.90
2022-10-21T08:22:34.311Z,18.60
2022-10-21T08:23:34.278Z,17.60
2022-10-21T08:24:37.438Z,18.10
2022-10-21T08:25:35.253Z,19.10
2022-10-21T08:26:34.248Z,16.20
2022-10-21T08:27:34.250Z,15.80
2022-10-21T08:28:34.253Z,20.30
2022-10-21T08:29:36.432Z,17.40
2022-10-21T08:30:34.224Z,20.70
2022-10-21T08:31:34.220Z,21.20
2022-10-21T08:32:34.247Z,17.70
2022-10-21T08:33:34.231Z,17.40
2022-10-21T08:34:34.202Z,16.90
2022-10-21T08:35:34.188Z,18.20
2022-10-21T08:36:34.186Z,18.50
2022-10-21T08:37:34.181Z,13.90
2022-10-21T08:38:34.194Z,17.20
2022-10-21T08:39:34.197Z,17.40
2022-10-21T08:40:34.151Z,18.30
2022-10-21T08:41:34.149Z,19.70
2022-10-21T08:42:34.168Z,16.90
2022-10-21T08:43:34.140Z,17.20
2022-10-21T08:44:34.122Z,20.30
2022-10-21T08:45:34.122Z,18.40
2022-10-21T08:46:34.111Z,18.60
2022-10-21T08:47:34.097Z,22.80
2022-10-21T08:48:34.098Z,16.00
2022-10-21T08:49:34.822Z,17.30
2022-10-21T08:50:34.110Z,16.90
2022-10-21T08:51:34.077Z,18.70
2022-10-21T08:52:34.059Z,18.60
2022-10-21T08:53:34.066Z,17.70
2022-10-21T08:54:34.556Z,20.00
2022-10-21T08:55:34.042Z,16.80
2022-10-21T08:56:34.045Z,20.20
2022-10-21T08:57:34.025Z,17.80
2022-10-21T08:58:34.057Z,16.90
2022-10-21T08:59:34.023Z,16.80
2022-10-21T09:00:34.009Z,16.00
2022-10-21T09:01:34.005Z,17.40
2022-10-21T09:02:34.037Z,16.80
2022-10-21T09:03:33.985Z,21.10
2022-10-21T09:04:34.000Z,15.20
2022-10-21T09:05:35.036Z,17.90
2022-10-21T09:06:33.964Z,16.20
2022-10-21T09:07:33.986Z,22.00
2022-10-21T09:08:34.018Z,19.00
2022-10-21T09:09:33.947Z,17.40
2022-10-21T09:10:33.965Z,27.70
2022-10-21T09:11:33.934Z,20.50
2022-10-21T09:12:33.926Z,18.40
2022-10-21T09:13:33.928Z,18.80
2022-10-21T09:14:33.909Z,20.00
2022-10-21T09:15:33.912Z,18.00
2022-10-21T09:16:34.671Z,16.40
2022-10-21T09:17:34.373Z,18.10
2022-10-21T09:18:33.876Z,14.80
2022-10-21T09:19:33.879Z,13.90
2022-10-21T09:20:33.865Z,22.20
2022-10-21T09:21:33.891Z,17.50
2022-10-21T09:22:35.574Z,19.30
2022-10-21T09:23:33.867Z,18.80
2022-10-21T09:24:33.849Z,15.40
2022-10-21T09:25:33.831Z,19.60
2022-10-21T09:26:33.856Z,15.90
2022-10-21T09:27:51.306Z,15.70
2022-10-21T09:28:35.561Z,20.20
2022-10-21T09:29:33.804Z,16.50
2022-10-21T09:30:33.811Z,16.00
2022-10-21T09:31:33.785Z,15.50
2022-10-21T09:32:33.789Z,14.90
2022-10-21T09:33:34.027Z,15.50
2022-10-21T09:34:33.769Z,17.00
2022-10-21T09:35:33.752Z,15.70
2022-10-21T09:36:33.751Z,15.20
2022-10-21T09:37:35.497Z,16.80
2022-10-21T09:38:33.727Z,18.50
2022-10-21T09:39:33.827Z,19.40
2022-10-21T09:40:33.719Z,16.40
2022-10-21T09:41:33.715Z,14.70
2022-10-21T09:42:47.039Z,17.60
2022-10-21T09:43:34.691Z,15.10
2022-10-21T09:44:33.723Z,15.80
2022-10-21T09:45:33.676Z,17.30
2022-10-21T09:46:33.674Z,14.50
2022-10-21T09:47:33.672Z,15.90
2022-10-21T09:48:41.749Z,16.50
2022-10-21T09:50:05.776Z,15.70
2022-10-21T09:50:34.650Z,14.60
2022-10-21T09:51:33.644Z,20.70
2022-10-21T09:52:33.631Z,17.10
2022-10-21T09:53:33.628Z,17.90
2022-10-21T09:54:34.268Z,17.10
2022-10-21T09:55:33.609Z,17.00
2022-10-21T09:56:33.606Z,15.80
2022-10-21T09:57:33.598Z,16.60
2022-10-21T09:58:33.617Z,13.00
2022-10-21T09:59:33.755Z,16.60
2022-10-21T10:00:34.054Z,15.20
2022-10-21T10:01:33.664Z,16.30
2022-10-21T10:02:33.580Z,14.30
2022-10-21T10:03:33.554Z,15.20
2022-10-21T10:04:33.554Z,14.00
2022-10-21T10:05:33.536Z,18.70
2022-10-21T10:06:33.525Z,15.10
2022-10-21T10:07:33.531Z,19.00
2022-10-21T10:08:33.710Z,13.50
2022-10-21T10:09:33.518Z,17.60
2022-10-21T10:10:33.514Z,15.10
2022-10-21T10:11:33.752Z,15.30
2022-10-21T10:12:33.544Z,12.50
2022-10-21T10:13:33.476Z,20.70
2022-10-21T10:14:33.494Z,15.60
2022-10-21T10:15:33.469Z,14.20
2022-10-21T10:16:33.468Z,13.70
2022-10-21T10:17:33.454Z,14.60
2022-10-21T10:18:33.444Z,16.10
2022-10-21T10:19:33.496Z,13.50
2022-10-21T10:20:33.424Z,20.80
2022-10-21T10:21:33.440Z,18.30
2022-10-21T10:22:33.417Z,16.20
2022-10-21T10:23:33.405Z,16.60
2022-10-21T10:24:33.405Z,14.50
2022-10-21T10:25:33.393Z,15.60
2022-10-21T10:26:33.430Z,23.00
2022-10-21T10:27:33.385Z,14.30
2022-10-21T10:28:33.432Z,15.80
2022-10-21T10:29:33.375Z,18.90
2022-10-21T10:30:33.479Z,18.90
2022-10-21T10:31:33.353Z,20.80
2022-10-21T10:32:33.367Z,20.00
2022-10-21T10:33:33.356Z,17.00
2022-10-21T10:34:33.328Z,16.60
2022-10-21T10:35:33.325Z,18.50
2022-10-21T10:36:33.334Z,21.70
2022-10-21T10:37:33.361Z,18.40
2022-10-21T10:38:33.304Z,18.40
2022-10-21T10:39:33.288Z,22.40
2022-10-21T10:40:33.293Z,18.40
2022-10-21T10:41:33.637Z,24.30
2022-10-21T10:42:33.277Z,24.20
2022-10-21T10:43:33.266Z,25.30
2022-10-21T10:44:33.277Z,20.10
2022-10-21T10:45:33.272Z,20.50
2022-10-21T10:46:33.365Z,18.70
2022-10-21T10:47:33.251Z,26.30
2022-10-21T10:48:33.236Z,23.60
2022-10-21T10:49:33.226Z,29.80
2022-10-21T10:50:33.215Z,23.00
2022-10-21T10:51:33.206Z,23.40
2022-10-21T10:52:33.729Z,21.80
2022-10-21T10:53:33.204Z,28.70
2022-10-21T10:54:33.238Z,22.70
2022-10-21T10:55:33.188Z,28.20
2022-10-21T10:56:33.171Z,29.00
2022-10-21T10:57:44.152Z,34.90
2022-10-21T10:58:34.168Z,27.50
2022-10-21T10:59:33.162Z,36.60
2022-10-21T11:00:33.153Z,46.10
2022-10-21T11:01:33.267Z,40.50
2022-10-21T11:02:33.270Z,32.80
2022-10-21T11:03:36.829Z,35.90
2022-10-21T11:04:34.116Z,36.20
2022-10-21T11:05:33.111Z,47.20
2022-10-21T11:06:33.154Z,43.70
2022-10-21T11:07:33.119Z,55.80
2022-10-21T11:08:34.308Z,69.60
2022-10-21T11:09:33.137Z,71.70
2022-10-21T11:10:33.415Z,66.30
2022-10-21T11:11:33.067Z,50.00
2022-10-21T11:12:33.067Z,45.70
2022-10-21T11:13:33.061Z,49.30
2022-10-21T11:14:33.077Z,48.40
2022-10-21T11:15:33.061Z,42.90
2022-10-21T11:16:44.859Z,26.00
2022-10-21T11:17:34.027Z,34.60
2022-10-21T11:18:33.148Z,45.50
2022-10-21T11:19:33.019Z,38.80
2022-10-21T11:20:33.025Z,45.00
2022-10-21T11:21:33.018Z,30.90
2022-10-21T11:22:33.021Z,44.60
2022-10-21T11:23:32.983Z,37.00
2022-10-21T11:24:32.988Z,31.30
2022-10-21T11:25:32.979Z,40.20
2022-10-21T11:26:32.968Z,31.60
2022-10-21T11:27:32.962Z,38.90
2022-10-21T11:28:32.965Z,32.70
2022-10-21T11:29:32.941Z,35.10
2022-10-21T11:30:32.939Z,45.70
2022-10-21T11:31:37.335Z,45.70
2022-10-21T11:32:33.928Z,40.50
2022-10-21T11:33:32.951Z,39.30
2022-10-21T11:34:33.025Z,37.30
2022-10-21T11:35:32.911Z,37.50
2022-10-21T11:36:32.892Z,37.80
2022-10-21T11:37:32.892Z,36.10
2022-10-21T11:38:32.886Z,34.40
2022-10-21T11:39:32.896Z,32.90
2022-10-21T11:40:32.902Z,29.80
2022-10-21T11:41:32.871Z,51.40
2022-10-21T11:42:33.004Z,23.00
2022-10-21T11:43:32.852Z,27.40
2022-10-21T11:44:32.847Z,36.90
2022-10-21T11:45:32.838Z,41.50
2022-10-21T11:46:33.101Z,39.40
2022-10-21T11:47:32.828Z,25.80
2022-10-21T11:48:32.809Z,33.20
2022-10-21T11:49:36.387Z,26.60
2022-10-21T11:50:32.928Z,41.00
2022-10-21T11:51:32.797Z,34.60
2022-10-21T11:52:32.791Z,36.10
2022-10-21T11:53:32.781Z,39.60
2022-10-21T11:54:32.778Z,44.30
2022-10-21T11:55:32.759Z,46.80
2022-10-21T11:56:32.757Z,49.40
2022-10-21T11:57:32.756Z,50.90
2022-10-21T11:58:32.738Z,36.40
2022-10-21T11:59:32.737Z,49.30
2022-10-21T12:00:32.718Z,40.60
2022-10-21T12:01:32.854Z,39.20
2022-10-21T12:02:32.815Z,40.30
2022-10-21T12:03:32.727Z,33.30
2022-10-21T12:04:32.699Z,31.70
2022-10-21T12:05:32.694Z,40.10
2022-10-21T12:06:32.794Z,30.50
2022-10-21T12:07:32.679Z,29.80
2022-10-21T12:08:32.661Z,30.20
2022-10-21T12:09:32.660Z,35.40
2022-10-21T12:10:32.667Z,30.10
2022-10-21T12:11:32.644Z,21.10
2022-10-21T12:12:32.810Z,27.80
2022-10-21T12:13:32.633Z,28.90
2022-10-21T12:14:32.616Z,35.70
2022-10-21T12:15:32.619Z,32.80
2022-10-21T12:16:32.599Z,25.40
2022-10-21T12:17:32.662Z,24.00
2022-10-21T12:18:32.593Z,26.60
2022-10-21T12:19:32.581Z,26.10
2022-10-21T12:20:32.584Z,28.60
2022-10-21T12:21:32.580Z,30.50
2022-10-21T12:22:32.678Z,18.10
2022-10-21T12:23:32.571Z,27.90
2022-10-21T12:24:32.549Z,30.60
2022-10-21T12:25:32.536Z,25.30
2022-10-21T12:26:32.617Z,27.30
2022-10-21T12:27:32.545Z,29.10
2022-10-21T12:28:32.527Z,17.80
2022-10-21T12:29:32.547Z,17.50
2022-10-21T12:30:32.514Z,21.90
2022-10-21T12:31:32.496Z,21.40
2022-10-21T12:32:32.491Z,15.90
2022-10-21T12:33:32.506Z,19.90
2022-10-21T12:34:32.471Z,12.90
2022-10-21T12:35:32.548Z,14.90
2022-10-21T12:36:32.453Z,18.10
2022-10-21T12:37:32.583Z,20.80
2022-10-21T12:38:32.560Z,17.80
2022-10-21T12:39:32.434Z,20.00
2022-10-21T12:40:32.436Z,18.50
2022-10-21T12:41:32.430Z,21.10
2022-10-21T12:42:32.418Z,19.10
2022-10-21T12:43:32.413Z,21.40
2022-10-21T12:44:32.419Z,19.40
2022-10-21T12:45:32.397Z,21.40
2022-10-21T12:46:34.919Z,20.70
2022-10-21T12:47:33.389Z,13.00
2022-10-21T12:48:32.370Z,17.60
2022-10-21T12:49:32.363Z,14.60
2022-10-21T12:50:32.358Z,17.00
2022-10-21T12:51:32.347Z,14.10
2022-10-21T12:52:32.348Z,19.70
2022-10-21T12:53:32.340Z,20.30
2022-10-21T12:54:32.351Z,14.30
2022-10-21T12:55:32.325Z,17.40
2022-10-21T12:56:32.309Z,23.50